Photometre #847[NE_1.6_Dp] OHP_OBSERVATOIRE AOT

File : 20200923_847.hum

23/09/2020,06:16:08,TEMP=13.2,BA=5.68,STAT.A,ExtBa=13.20
23/09/2020,06:19:43,TEMP=13.6,BA=5.68,STAT.A,ExtBa=13.10
23/09/2020,06:23:53,TEMP=13.9,BA=5.68,STAT.A,ExtBa=13.20
23/09/2020,06:28:53,TEMP=14.2,BA=5.68,STAT.A,ExtBa=13.20
23/09/2020,06:34:53,TEMP=14.5,BA=5.64,STAT.A,ExtBa=13.10
23/09/2020,06:42:17,TEMP=14.9,BA=5.68,STAT.A,ExtBa=13.20
23/09/2020,06:51:39,TEMP=15.0,BA=5.68,STAT.B,ExtBa=13.20
23/09/2020,07:01:19,TEMP=15.8,BA=5.60,STAT.A,ExtBa=12.60
23/09/2020,07:03:19,TEMP=15.9,BA=5.60,STAT.A,ExtBa=12.70
23/09/2020,07:06:50,TEMP=15.6,BA=5.60,STAT.A,ExtBa=12.80
23/09/2020,07:13:17,TEMP=15.9,BA=5.68,STAT.A,ExtBa=12.90
23/09/2020,07:20:43,TEMP=16.6,BA=5.68,STAT.C,ExtBa=13.10
23/09/2020,07:45:24,TEMP=18.6,BA=5.60,STAT.b=1.0
23/09/2020,07:45:50,TEMP=18.7,BA=5.60,STAT.A,ExtBa=12.60
23/09/2020,07:47:49,TEMP=18.8,BA=5.60,STAT.A,ExtBa=12.70
23/09/2020,07:51:52,TEMP=18.3,BA=5.68,STAT.A,ExtBa=12.80
23/09/2020,08:07:03,TEMP=18.9,BA=5.68,STAT.A,ExtBa=13.20
23/09/2020,08:26:25,TEMP=20.7,BA=5.68,STAT.B,ExtBa=13.30
23/09/2020,08:35:31,TEMP=21.9,BA=5.60,STAT.F,ExtBa=12.70
23/09/2020,09:01:18,TEMP=22.4,BA=5.60,STAT.D,ExtBa=12.60
23/09/2020,09:03:16,TEMP=22.2,BA=5.60,STAT.D,ExtBa=12.70
23/09/2020,09:14:56,TEMP=20.3,BA=5.68,STAT.D,ExtBa=13.10
23/09/2020,09:29:58,TEMP=21.5,BA=5.68,STAT.F,ExtBa=13.20
23/09/2020,09:44:56,TEMP=20.0,BA=5.68,STAT.D,ExtBa=13.30
23/09/2020,09:59:56,TEMP=21.8,BA=5.68,STAT.D,ExtBa=13.30
23/09/2020,10:14:56,TEMP=23.3,BA=5.68,STAT.D,ExtBa=13.30
23/09/2020,10:29:58,TEMP=24.2,BA=5.68,STAT.F,ExtBa=13.30
23/09/2020,10:53:43,TEMP=24.8,BA=5.56,STAT.b=1.0
23/09/2020,10:54:01,TEMP=24.8,BA=5.56,STAT.b=1.0
23/09/2020,10:59:56,TEMP=24.3,BA=5.56,STAT.D,ExtBa=13.00
23/09/2020,11:14:56,TEMP=24.8,BA=5.68,STAT.D,ExtBa=13.20
23/09/2020,11:29:58,TEMP=23.9,BA=5.68,STAT.F,ExtBa=13.30
23/09/2020,11:44:57,TEMP=22.1,BA=5.68,STAT.D,ExtBa=13.30
23/09/2020,11:59:56,TEMP=23.1,BA=5.68,STAT.D,ExtBa=13.40
23/09/2020,12:14:56,TEMP=22.5,BA=5.68,STAT.D,ExtBa=13.40
23/09/2020,12:29:58,TEMP=23.5,BA=5.68,STAT.F,ExtBa=13.40
23/09/2020,12:54:59,TEMP=25.3,BA=5.52,STAT.b=1.0
23/09/2020,12:55:18,TEMP=25.3,BA=5.52,STAT.b=1.0
23/09/2020,12:59:55,TEMP=24.8,BA=5.52,STAT.D,ExtBa=12.90
23/09/2020,13:14:56,TEMP=25.2,BA=5.68,STAT.D,ExtBa=13.20
23/09/2020,13:29:57,TEMP=25.4,BA=5.68,STAT.F,ExtBa=13.20
23/09/2020,13:55:41,TEMP=25.5,BA=5.52,STAT.b=1.0
23/09/2020,13:56:00,TEMP=25.5,BA=5.52,STAT.b=1.0
23/09/2020,13:59:55,TEMP=24.9,BA=5.52,STAT.D,ExtBa=12.80
23/09/2020,14:14:56,TEMP=24.9,BA=5.68,STAT.D,ExtBa=13.10
23/09/2020,14:29:58,TEMP=24.7,BA=5.68,STAT.F,ExtBa=13.20
23/09/2020,14:54:47,TEMP=24.9,BA=5.52,STAT.b=1.0
23/09/2020,14:55:14,TEMP=24.9,BA=5.52,STAT.B,ExtBa=12.60
23/09/2020,15:04:09,TEMP=24.5,BA=5.52,STAT.A,ExtBa=12.60
23/09/2020,15:08:02,TEMP=24.1,BA=5.52,STAT.A,ExtBa=12.80
23/09/2020,15:20:20,TEMP=23.6,BA=5.68,STAT.A,ExtBa=13.10
23/09/2020,15:30:32,TEMP=23.5,BA=5.68,STAT.A,ExtBa=13.10
23/09/2020,15:39:11,TEMP=23.3,BA=5.68,STAT.C,ExtBa=13.20
23/09/2020,16:06:28,TEMP=23.3,BA=5.52,STAT.b=1.0
23/09/2020,16:06:54,TEMP=23.3,BA=5.52,STAT.A,ExtBa=12.60
23/09/2020,16:08:57,TEMP=23.2,BA=5.52,STAT.A,ExtBa=12.70
23/09/2020,16:11:01,TEMP=23.2,BA=5.52,STAT.A,ExtBa=12.70
23/09/2020,16:13:43,TEMP=23.1,BA=5.52,STAT.A,ExtBa=12.60
23/09/2020,16:15:44,TEMP=23.0,BA=5.52,STAT.B,ExtBa=12.70
23/09/2020,16:26:56,TEMP=22.4,BA=5.52,STAT.A,ExtBa=12.60
23/09/2020,16:29:23,TEMP=22.3,BA=5.52,STAT.A,ExtBa=12.60
23/09/2020,16:31:35,TEMP=22.3,BA=5.52,STAT.A,ExtBa=12.60
23/09/2020,16:46:22,TEMP=21.2,BA=5.56,STAT.A,ExtBa=13.10
23/09/2020,16:48:45,TEMP=21.6,BA=5.56,STAT.A,ExtBa=12.80
23/09/2020,16:50:51,TEMP=21.6,BA=5.56,STAT.A,ExtBa=12.80